Terminal Aerodrome Forecast
Issued by NWS

Home | Current Version | Previous Version | Text Only | Print | Product List | Glossary On
Versions: 1 2 3 4 5 6 7 8 9 10 11 12 13 14 15 16 17 18 19
668
FTUS41 KCAR 131720
TAFPQI
TAF
KPQI 131720Z 1318/1418 VRB03KT P6SM BKN045 OVC060
     FM132200 36006KT 2SM -SHSN BKN020
      TEMPO 1322/1323 1/4SM +SN VV008
     FM140030 35008KT P6SM -SN BKN030
     FM140400 34010G17KT P6SM SCT060=

USA.gov is the U.S. government's official web portal to all federal, state and local government web resources and services.